sensor_id;sensor_type;location;lat;lon;timestamp;P1;durP1;ratioP1;P2;durP2;ratioP2
76284;SDS011;65096;50.998;7.098;2023-04-24T00:00:12;1.42;;;0.68;;
76284;SDS011;65096;50.998;7.098;2023-04-24T00:02:39;1.10;;;0.60;;
76284;SDS011;65096;50.998;7.098;2023-04-24T00:05:06;1.30;;;0.52;;
76284;SDS011;65096;50.998;7.098;2023-04-24T00:07:34;0.50;;;0.50;;
76284;SDS011;65096;50.998;7.098;2023-04-24T00:10:00;0.45;;;0.40;;
76284;SDS011;65096;50.998;7.098;2023-04-24T00:12:28;1.02;;;0.52;;
76284;SDS011;65096;50.998;7.098;2023-04-24T00:14:55;1.25;;;0.60;;
76284;SDS011;65096;50.998;7.098;2023-04-24T00:17:22;1.75;;;0.80;;
76284;SDS011;65096;50.998;7.098;2023-04-24T00:19:48;1.17;;;0.70;;
76284;SDS011;65096;50.998;7.098;2023-04-24T00:22:16;0.75;;;0.52;;
76284;SDS011;65096;50.998;7.098;2023-04-24T00:24:45;1.05;;;0.65;;
76284;SDS011;65096;50.998;7.098;2023-04-24T00:27:12;1.83;;;0.73;;
76284;SDS011;65096;50.998;7.098;2023-04-24T00:29:40;1.55;;;0.73;;
76284;SDS011;65096;50.998;7.098;2023-04-24T00:32:06;1.38;;;0.75;;
76284;SDS011;65096;50.998;7.098;2023-04-24T00:34:33;1.67;;;1.00;;
76284;SDS011;65096;50.998;7.098;2023-04-24T00:37:00;0.68;;;0.60;;
76284;SDS011;65096;50.998;7.098;2023-04-24T00:39:27;1.10;;;0.80;;
76284;SDS011;65096;50.998;7.098;2023-04-24T00:41:53;0.85;;;0.73;;
76284;SDS011;65096;50.998;7.098;2023-04-24T00:44:20;0.93;;;0.77;;
76284;SDS011;65096;50.998;7.098;2023-04-24T00:46:48;1.15;;;0.70;;
76284;SDS011;65096;50.998;7.098;2023-04-24T00:49:19;0.95;;;0.70;;
76284;SDS011;65096;50.998;7.098;2023-04-24T00:51:46;1.42;;;0.75;;
76284;SDS011;65096;50.998;7.098;2023-04-24T00:54:14;2.35;;;1.05;;
76284;SDS011;65096;50.998;7.098;2023-04-24T00:56:41;2.25;;;0.93;;
76284;SDS011;65096;50.998;7.098;2023-04-24T00:59:08;1.10;;;0.85;;
76284;SDS011;65096;50.998;7.098;2023-04-24T01:01:35;1.13;;;0.75;;
76284;SDS011;65096;50.998;7.098;2023-04-24T01:04:03;3.42;;;1.10;;
76284;SDS011;65096;50.998;7.098;2023-04-24T01:06:32;1.77;;;0.98;;
76284;SDS011;65096;50.998;7.098;2023-04-24T01:09:00;1.65;;;0.90;;
76284;SDS011;65096;50.998;7.098;2023-04-24T01:11:27;1.42;;;0.90;;
76284;SDS011;65096;50.998;7.098;2023-04-24T01:13:56;1.58;;;1.00;;
76284;SDS011;65096;50.998;7.098;2023-04-24T01:16:23;2.55;;;1.05;;
76284;SDS011;65096;50.998;7.098;2023-04-24T01:18:50;1.73;;;1.10;;
76284;SDS011;65096;50.998;7.098;2023-04-24T01:21:19;1.92;;;1.00;;
76284;SDS011;65096;50.998;7.098;2023-04-24T01:23:48;2.40;;;1.00;;
76284;SDS011;65096;50.998;7.098;2023-04-24T01:26:16;1.38;;;1.05;;
76284;SDS011;65096;50.998;7.098;2023-04-24T01:28:45;2.33;;;1.10;;
76284;SDS011;65096;50.998;7.098;2023-04-24T01:31:11;3.08;;;1.17;;
76284;SDS011;65096;50.998;7.098;2023-04-24T01:33:38;3.35;;;1.20;;
76284;SDS011;65096;50.998;7.098;2023-04-24T01:36:05;1.77;;;1.00;;
76284;SDS011;65096;50.998;7.098;2023-04-24T01:38:32;2.45;;;1.48;;
76284;SDS011;65096;50.998;7.098;2023-04-24T01:41:00;2.88;;;1.00;;
76284;SDS011;65096;50.998;7.098;2023-04-24T01:43:27;2.58;;;1.23;;
76284;SDS011;65096;50.998;7.098;2023-04-24T01:45:54;2.63;;;1.30;;
76284;SDS011;65096;50.998;7.098;2023-04-24T01:48:21;2.25;;;1.17;;
76284;SDS011;65096;50.998;7.098;2023-04-24T01:50:48;3.35;;;1.48;;
76284;SDS011;65096;50.998;7.098;2023-04-24T01:53:15;3.53;;;1.50;;
76284;SDS011;65096;50.998;7.098;2023-04-24T01:55:41;3.05;;;1.50;;
76284;SDS011;65096;50.998;7.098;2023-04-24T01:58:09;4.78;;;1.75;;
76284;SDS011;65096;50.998;7.098;2023-04-24T02:00:36;4.03;;;1.60;;
76284;SDS011;65096;50.998;7.098;2023-04-24T02:03:03;4.85;;;1.95;;
76284;SDS011;65096;50.998;7.098;2023-04-24T02:05:29;6.15;;;2.13;;
76284;SDS011;65096;50.998;7.098;2023-04-24T02:07:56;4.30;;;2.15;;
76284;SDS011;65096;50.998;7.098;2023-04-24T02:10:23;2.65;;;1.48;;
76284;SDS011;65096;50.998;7.098;2023-04-24T02:12:50;5.22;;;2.38;;
76284;SDS011;65096;50.998;7.098;2023-04-24T02:15:18;5.60;;;2.42;;
76284;SDS011;65096;50.998;7.098;2023-04-24T02:17:45;5.03;;;2.10;;
76284;SDS011;65096;50.998;7.098;2023-04-24T02:20:13;5.35;;;2.35;;
76284;SDS011;65096;50.998;7.098;2023-04-24T02:22:40;7.22;;;2.97;;
76284;SDS011;65096;50.998;7.098;2023-04-24T02:25:07;6.40;;;2.35;;
76284;SDS011;65096;50.998;7.098;2023-04-24T02:27:34;5.90;;;1.70;;
76284;SDS011;65096;50.998;7.098;2023-04-24T02:30:01;4.90;;;2.10;;
76284;SDS011;65096;50.998;7.098;2023-04-24T02:32:29;5.80;;;2.63;;
76284;SDS011;65096;50.998;7.098;2023-04-24T02:34:56;7.53;;;2.60;;
76284;SDS011;65096;50.998;7.098;2023-04-24T02:37:22;6.25;;;2.70;;
76284;SDS011;65096;50.998;7.098;2023-04-24T02:39:49;8.50;;;3.15;;
76284;SDS011;65096;50.998;7.098;2023-04-24T02:42:16;6.40;;;2.60;;
76284;SDS011;65096;50.998;7.098;2023-04-24T02:44:42;7.85;;;3.08;;
76284;SDS011;65096;50.998;7.098;2023-04-24T02:47:09;7.38;;;2.97;;
76284;SDS011;65096;50.998;7.098;2023-04-24T02:49:37;6.97;;;2.88;;
76284;SDS011;65096;50.998;7.098;2023-04-24T02:52:04;5.95;;;2.50;;
76284;SDS011;65096;50.998;7.098;2023-04-24T02:54:30;5.18;;;2.63;;
76284;SDS011;65096;50.998;7.098;2023-04-24T02:56:57;5.93;;;2.78;;
76284;SDS011;65096;50.998;7.098;2023-04-24T02:59:24;6.30;;;2.55;;
76284;SDS011;65096;50.998;7.098;2023-04-24T03:01:52;6.53;;;2.65;;
76284;SDS011;65096;50.998;7.098;2023-04-24T03:04:18;7.20;;;3.05;;
76284;SDS011;65096;50.998;7.098;2023-04-24T03:06:47;8.43;;;3.40;;
76284;SDS011;65096;50.998;7.098;2023-04-24T03:09:14;6.68;;;3.13;;
76284;SDS011;65096;50.998;7.098;2023-04-24T03:11:40;8.13;;;3.45;;
76284;SDS011;65096;50.998;7.098;2023-04-24T03:14:10;9.68;;;3.72;;
76284;SDS011;65096;50.998;7.098;2023-04-24T03:16:36;7.40;;;3.33;;
76284;SDS011;65096;50.998;7.098;2023-04-24T03:19:03;7.13;;;3.25;;
76284;SDS011;65096;50.998;7.098;2023-04-24T03:21:30;8.10;;;4.18;;
76284;SDS011;65096;50.998;7.098;2023-04-24T03:23:58;8.25;;;3.65;;
76284;SDS011;65096;50.998;7.098;2023-04-24T03:26:25;11.23;;;4.10;;
76284;SDS011;65096;50.998;7.098;2023-04-24T03:28:51;8.68;;;4.07;;
76284;SDS011;65096;50.998;7.098;2023-04-24T03:31:18;7.85;;;3.67;;
76284;SDS011;65096;50.998;7.098;2023-04-24T03:33:46;6.72;;;3.42;;
76284;SDS011;65096;50.998;7.098;2023-04-24T03:36:12;8.85;;;4.00;;
76284;SDS011;65096;50.998;7.098;2023-04-24T03:38:39;8.63;;;3.63;;
76284;SDS011;65096;50.998;7.098;2023-04-24T03:41:07;8.63;;;3.70;;
76284;SDS011;65096;50.998;7.098;2023-04-24T03:43:34;9.32;;;4.00;;
76284;SDS011;65096;50.998;7.098;2023-04-24T03:46:00;9.13;;;3.85;;
76284;SDS011;65096;50.998;7.098;2023-04-24T03:48:28;5.28;;;2.38;;
76284;SDS011;65096;50.998;7.098;2023-04-24T03:50:54;8.35;;;3.63;;
76284;SDS011;65096;50.998;7.098;2023-04-24T03:53:21;9.50;;;3.63;;
76284;SDS011;65096;50.998;7.098;2023-04-24T03:55:48;8.63;;;3.80;;
76284;SDS011;65096;50.998;7.098;2023-04-24T03:58:16;7.78;;;3.58;;
76284;SDS011;65096;50.998;7.098;2023-04-24T04:00:42;9.15;;;3.70;;
76284;SDS011;65096;50.998;7.098;2023-04-24T04:03:11;7.55;;;3.67;;
76284;SDS011;65096;50.998;7.098;2023-04-24T04:05:38;8.82;;;3.90;;
76284;SDS011;65096;50.998;7.098;2023-04-24T04:08:05;8.70;;;4.00;;
76284;SDS011;65096;50.998;7.098;2023-04-24T04:10:32;8.10;;;3.85;;
76284;SDS011;65096;50.998;7.098;2023-04-24T04:12:58;7.95;;;3.97;;
76284;SDS011;65096;50.998;7.098;2023-04-24T04:15:26;7.05;;;3.25;;
76284;SDS011;65096;50.998;7.098;2023-04-24T04:17:53;6.63;;;3.20;;
76284;SDS011;65096;50.998;7.098;2023-04-24T04:20:20;6.68;;;3.15;;
76284;SDS011;65096;50.998;7.098;2023-04-24T04:22:46;8.00;;;3.83;;
76284;SDS011;65096;50.998;7.098;2023-04-24T04:25:13;8.52;;;3.95;;
76284;SDS011;65096;50.998;7.098;2023-04-24T04:27:40;7.95;;;3.63;;
76284;SDS011;65096;50.998;7.098;2023-04-24T04:30:07;6.95;;;3.50;;
76284;SDS011;65096;50.998;7.098;2023-04-24T04:32:36;7.38;;;3.00;;
76284;SDS011;65096;50.998;7.098;2023-04-24T04:35:03;8.15;;;3.40;;
76284;SDS011;65096;50.998;7.098;2023-04-24T04:37:31;13.10;;;3.70;;
76284;SDS011;65096;50.998;7.098;2023-04-24T04:39:58;6.75;;;3.22;;
76284;SDS011;65096;50.998;7.098;2023-04-24T04:42:25;6.75;;;3.40;;
76284;SDS011;65096;50.998;7.098;2023-04-24T04:44:52;9.35;;;3.38;;
76284;SDS011;65096;50.998;7.098;2023-04-24T04:47:21;7.20;;;3.03;;
76284;SDS011;65096;50.998;7.098;2023-04-24T04:49:50;5.95;;;3.17;;
76284;SDS011;65096;50.998;7.098;2023-04-24T04:52:17;8.38;;;3.33;;
76284;SDS011;65096;50.998;7.098;2023-04-24T04:54:43;9.43;;;3.97;;
76284;SDS011;65096;50.998;7.098;2023-04-24T04:57:11;8.05;;;3.28;;
76284;SDS011;65096;50.998;7.098;2023-04-24T04:59:38;6.75;;;3.03;;
76284;SDS011;65096;50.998;7.098;2023-04-24T05:02:06;8.05;;;3.58;;
76284;SDS011;65096;50.998;7.098;2023-04-24T05:04:32;8.15;;;3.40;;
76284;SDS011;65096;50.998;7.098;2023-04-24T05:07:00;8.32;;;3.30;;
76284;SDS011;65096;50.998;7.098;2023-04-24T05:09:27;7.57;;;3.38;;
76284;SDS011;65096;50.998;7.098;2023-04-24T05:11:54;7.30;;;3.20;;
76284;SDS011;65096;50.998;7.098;2023-04-24T05:14:21;6.45;;;3.00;;
76284;SDS011;65096;50.998;7.098;2023-04-24T05:16:48;9.07;;;3.55;;
76284;SDS011;65096;50.998;7.098;2023-04-24T05:19:14;6.47;;;3.28;;
76284;SDS011;65096;50.998;7.098;2023-04-24T05:21:41;8.40;;;3.38;;
76284;SDS011;65096;50.998;7.098;2023-04-24T05:24:09;8.15;;;3.40;;
76284;SDS011;65096;50.998;7.098;2023-04-24T05:26:36;7.80;;;3.47;;
76284;SDS011;65096;50.998;7.098;2023-04-24T05:29:03;7.85;;;3.53;;
76284;SDS011;65096;50.998;7.098;2023-04-24T05:31:30;6.15;;;3.05;;
76284;SDS011;65096;50.998;7.098;2023-04-24T05:33:57;7.90;;;3.45;;
76284;SDS011;65096;50.998;7.098;2023-04-24T05:36:23;7.80;;;3.33;;
76284;SDS011;65096;50.998;7.098;2023-04-24T05:38:50;6.95;;;3.17;;
76284;SDS011;65096;50.998;7.098;2023-04-24T05:41:18;6.28;;;3.08;;
76284;SDS011;65096;50.998;7.098;2023-04-24T05:43:44;6.60;;;3.22;;
76284;SDS011;65096;50.998;7.098;2023-04-24T05:46:11;6.47;;;3.40;;
76284;SDS011;65096;50.998;7.098;2023-04-24T05:48:39;7.50;;;3.10;;
76284;SDS011;65096;50.998;7.098;2023-04-24T05:51:06;8.43;;;3.55;;
76284;SDS011;65096;50.998;7.098;2023-04-24T05:53:32;8.80;;;3.72;;
76284;SDS011;65096;50.998;7.098;2023-04-24T05:55:59;6.88;;;3.38;;
76284;SDS011;65096;50.998;7.098;2023-04-24T05:58:27;8.73;;;3.92;;
76284;SDS011;65096;50.998;7.098;2023-04-24T06:00:54;7.88;;;4.07;;
76284;SDS011;65096;50.998;7.098;2023-04-24T06:03:21;9.68;;;4.28;;
76284;SDS011;65096;50.998;7.098;2023-04-24T06:05:48;12.90;;;4.03;;
76284;SDS011;65096;50.998;7.098;2023-04-24T06:08:16;10.25;;;4.00;;
76284;SDS011;65096;50.998;7.098;2023-04-24T06:10:42;10.93;;;5.20;;
76284;SDS011;65096;50.998;7.098;2023-04-24T06:13:09;9.40;;;4.15;;
76284;SDS011;65096;50.998;7.098;2023-04-24T06:15:37;10.00;;;3.97;;
76284;SDS011;65096;50.998;7.098;2023-04-24T06:18:04;9.35;;;4.15;;
76284;SDS011;65096;50.998;7.098;2023-04-24T06:20:31;8.50;;;3.92;;
76284;SDS011;65096;50.998;7.098;2023-04-24T06:22:57;8.98;;;4.00;;
76284;SDS011;65096;50.998;7.098;2023-04-24T06:25:24;9.20;;;4.50;;
76284;SDS011;65096;50.998;7.098;2023-04-24T06:27:52;8.63;;;4.18;;
76284;SDS011;65096;50.998;7.098;2023-04-24T06:30:19;10.02;;;4.38;;
76284;SDS011;65096;50.998;7.098;2023-04-24T06:32:47;8.57;;;4.47;;
76284;SDS011;65096;50.998;7.098;2023-04-24T06:35:14;9.02;;;3.65;;
76284;SDS011;65096;50.998;7.098;2023-04-24T06:37:41;8.43;;;4.40;;
76284;SDS011;65096;50.998;7.098;2023-04-24T06:40:09;8.60;;;4.25;;
76284;SDS011;65096;50.998;7.098;2023-04-24T06:42:36;7.75;;;4.07;;
76284;SDS011;65096;50.998;7.098;2023-04-24T06:45:03;9.15;;;4.28;;
76284;SDS011;65096;50.998;7.098;2023-04-24T06:47:31;7.47;;;3.83;;
76284;SDS011;65096;50.998;7.098;2023-04-24T06:49:59;7.13;;;3.17;;
76284;SDS011;65096;50.998;7.098;2023-04-24T06:52:25;6.35;;;3.13;;
76284;SDS011;65096;50.998;7.098;2023-04-24T06:54:52;6.85;;;3.40;;
76284;SDS011;65096;50.998;7.098;2023-04-24T06:57:25;6.93;;;2.63;;
76284;SDS011;65096;50.998;7.098;2023-04-24T06:59:52;4.32;;;2.10;;
76284;SDS011;65096;50.998;7.098;2023-04-24T07:02:19;6.30;;;2.40;;
76284;SDS011;65096;50.998;7.098;2023-04-24T07:04:46;6.57;;;2.03;;
76284;SDS011;65096;50.998;7.098;2023-04-24T07:07:14;5.15;;;1.95;;
76284;SDS011;65096;50.998;7.098;2023-04-24T07:09:41;5.32;;;2.28;;
76284;SDS011;65096;50.998;7.098;2023-04-24T07:12:09;5.43;;;2.33;;
76284;SDS011;65096;50.998;7.098;2023-04-24T07:14:36;6.57;;;2.20;;
76284;SDS011;65096;50.998;7.098;2023-04-24T07:17:03;4.20;;;1.88;;
76284;SDS011;65096;50.998;7.098;2023-04-24T07:19:31;4.97;;;1.95;;
76284;SDS011;65096;50.998;7.098;2023-04-24T07:21:59;3.90;;;1.85;;
76284;SDS011;65096;50.998;7.098;2023-04-24T07:24:27;4.75;;;1.90;;
76284;SDS011;65096;50.998;7.098;2023-04-24T07:26:53;7.13;;;2.03;;
76284;SDS011;65096;50.998;7.098;2023-04-24T07:29:22;4.88;;;2.05;;
76284;SDS011;65096;50.998;7.098;2023-04-24T07:31:48;5.93;;;1.77;;
76284;SDS011;65096;50.998;7.098;2023-04-24T07:34:15;6.47;;;1.92;;
76284;SDS011;65096;50.998;7.098;2023-04-24T07:36:41;4.90;;;1.90;;
76284;SDS011;65096;50.998;7.098;2023-04-24T07:39:08;3.22;;;1.83;;
76284;SDS011;65096;50.998;7.098;2023-04-24T07:41:36;4.55;;;1.75;;
76284;SDS011;65096;50.998;7.098;2023-04-24T07:44:03;4.45;;;1.67;;
76284;SDS011;65096;50.998;7.098;2023-04-24T07:46:30;3.55;;;1.50;;
76284;SDS011;65096;50.998;7.098;2023-04-24T07:48:56;2.78;;;1.23;;
76284;SDS011;65096;50.998;7.098;2023-04-24T07:51:24;3.60;;;1.50;;
76284;SDS011;65096;50.998;7.098;2023-04-24T07:53:52;2.85;;;1.40;;
76284;SDS011;65096;50.998;7.098;2023-04-24T07:56:19;2.38;;;0.98;;
76284;SDS011;65096;50.998;7.098;2023-04-24T07:58:47;1.55;;;0.75;;
76284;SDS011;65096;50.998;7.098;2023-04-24T08:01:14;2.58;;;1.02;;
76284;SDS011;65096;50.998;7.098;2023-04-24T08:03:41;0.95;;;0.70;;
76284;SDS011;65096;50.998;7.098;2023-04-24T08:06:07;3.35;;;1.00;;
76284;SDS011;65096;50.998;7.098;2023-04-24T08:08:34;2.30;;;1.10;;
76284;SDS011;65096;50.998;7.098;2023-04-24T08:11:01;3.38;;;1.00;;
76284;SDS011;65096;50.998;7.098;2023-04-24T08:13:27;1.88;;;0.80;;
76284;SDS011;65096;50.998;7.098;2023-04-24T08:15:56;3.90;;;0.93;;
76284;SDS011;65096;50.998;7.098;2023-04-24T08:18:23;3.40;;;1.00;;
76284;SDS011;65096;50.998;7.098;2023-04-24T08:20:49;2.00;;;1.10;;
76284;SDS011;65096;50.998;7.098;2023-04-24T08:23:16;1.88;;;0.80;;
76284;SDS011;65096;50.998;7.098;2023-04-24T08:25:43;5.00;;;1.00;;
76284;SDS011;65096;50.998;7.098;2023-04-24T08:28:09;1.88;;;0.70;;
76284;SDS011;65096;50.998;7.098;2023-04-24T08:30:36;2.05;;;0.90;;
76284;SDS011;65096;50.998;7.098;2023-04-24T08:33:05;1.25;;;0.73;;
76284;SDS011;65096;50.998;7.098;2023-04-24T08:35:32;0.60;;;0.60;;
76284;SDS011;65096;50.998;7.098;2023-04-24T08:37:58;2.80;;;1.00;;
76284;SDS011;65096;50.998;7.098;2023-04-24T08:40:27;2.50;;;1.20;;
76284;SDS011;65096;50.998;7.098;2023-04-24T08:42:55;2.40;;;0.95;;
76284;SDS011;65096;50.998;7.098;2023-04-24T08:45:22;1.15;;;1.00;;
76284;SDS011;65096;50.998;7.098;2023-04-24T08:47:51;1.83;;;1.08;;
76284;SDS011;65096;50.998;7.098;2023-04-24T08:50:20;2.05;;;1.00;;
76284;SDS011;65096;50.998;7.098;2023-04-24T08:52:47;1.42;;;0.90;;
76284;SDS011;65096;50.998;7.098;2023-04-24T08:55:15;1.05;;;0.80;;
76284;SDS011;65096;50.998;7.098;2023-04-24T08:57:43;1.40;;;0.73;;
76284;SDS011;65096;50.998;7.098;2023-04-24T09:00:11;1.95;;;1.17;;
76284;SDS011;65096;50.998;7.098;2023-04-24T09:02:39;0.50;;;0.50;;
76284;SDS011;65096;50.998;7.098;2023-04-24T09:05:09;2.63;;;1.02;;
76284;SDS011;65096;50.998;7.098;2023-04-24T09:07:37;3.00;;;1.52;;
76284;SDS011;65096;50.998;7.098;2023-04-24T09:10:08;1.80;;;0.85;;
76284;SDS011;65096;50.998;7.098;2023-04-24T09:12:35;2.97;;;1.27;;
76284;SDS011;65096;50.998;7.098;2023-04-24T09:15:02;3.47;;;1.42;;
76284;SDS011;65096;50.998;7.098;2023-04-24T09:17:30;2.97;;;1.52;;
76284;SDS011;65096;50.998;7.098;2023-04-24T09:19:57;4.72;;;2.30;;
76284;SDS011;65096;50.998;7.098;2023-04-24T09:22:24;4.78;;;1.90;;
76284;SDS011;65096;50.998;7.098;2023-04-24T09:25:00;2.70;;;1.52;;
76284;SDS011;65096;50.998;7.098;2023-04-24T09:27:30;5.18;;;2.00;;
76284;SDS011;65096;50.998;7.098;2023-04-24T09:29:58;7.75;;;2.58;;
76284;SDS011;65096;50.998;7.098;2023-04-24T09:32:25;2.63;;;1.20;;
76284;SDS011;65096;50.998;7.098;2023-04-24T09:35:04;5.85;;;2.10;;
76284;SDS011;65096;50.998;7.098;2023-04-24T09:37:35;5.28;;;2.45;;
76284;SDS011;65096;50.998;7.098;2023-04-24T09:40:10;5.03;;;2.03;;
76284;SDS011;65096;50.998;7.098;2023-04-24T09:42:38;4.30;;;1.83;;
76284;SDS011;65096;50.998;7.098;2023-04-24T09:45:08;6.20;;;2.85;;
76284;SDS011;65096;50.998;7.098;2023-04-24T09:47:36;5.38;;;2.17;;
76284;SDS011;65096;50.998;7.098;2023-04-24T09:50:13;7.85;;;3.28;;
76284;SDS011;65096;50.998;7.098;2023-04-24T09:52:41;5.95;;;2.65;;
76284;SDS011;65096;50.998;7.098;2023-04-24T09:55:15;4.88;;;2.00;;
76284;SDS011;65096;50.998;7.098;2023-04-24T09:57:47;5.47;;;2.42;;
76284;SDS011;65096;50.998;7.098;2023-04-24T10:00:17;8.07;;;3.10;;
76284;SDS011;65096;50.998;7.098;2023-04-24T10:02:49;7.95;;;3.20;;
76284;SDS011;65096;50.998;7.098;2023-04-24T10:05:16;8.50;;;3.30;;
76284;SDS011;65096;50.998;7.098;2023-04-24T10:07:43;8.32;;;3.08;;
76284;SDS011;65096;50.998;7.098;2023-04-24T10:10:10;7.82;;;4.03;;
76284;SDS011;65096;50.998;7.098;2023-04-24T10:12:39;10.75;;;4.18;;
76284;SDS011;65096;50.998;7.098;2023-04-24T10:15:06;9.20;;;4.75;;
76284;SDS011;65096;50.998;7.098;2023-04-24T10:17:37;12.25;;;4.63;;
76284;SDS011;65096;50.998;7.098;2023-04-24T10:20:05;11.18;;;4.47;;
76284;SDS011;65096;50.998;7.098;2023-04-24T10:22:33;11.13;;;5.13;;
76284;SDS011;65096;50.998;7.098;2023-04-24T10:25:00;10.82;;;4.88;;
76284;SDS011;65096;50.998;7.098;2023-04-24T10:27:29;9.38;;;5.00;;
76284;SDS011;65096;50.998;7.098;2023-04-24T10:30:00;10.50;;;4.70;;
76284;SDS011;65096;50.998;7.098;2023-04-24T10:32:27;10.07;;;4.50;;
76284;SDS011;65096;50.998;7.098;2023-04-24T10:34:55;11.88;;;4.75;;
76284;SDS011;65096;50.998;7.098;2023-04-24T10:37:22;11.18;;;4.70;;
76284;SDS011;65096;50.998;7.098;2023-04-24T10:39:49;11.95;;;4.90;;
76284;SDS011;65096;50.998;7.098;2023-04-24T10:42:19;9.65;;;4.65;;
76284;SDS011;65096;50.998;7.098;2023-04-24T10:44:47;7.65;;;4.05;;
76284;SDS011;65096;50.998;7.098;2023-04-24T10:47:17;9.13;;;4.03;;
76284;SDS011;65096;50.998;7.098;2023-04-24T10:49:44;10.60;;;3.97;;
76284;SDS011;65096;50.998;7.098;2023-04-24T10:52:11;8.32;;;3.65;;
76284;SDS011;65096;50.998;7.098;2023-04-24T10:54:41;10.48;;;3.45;;
76284;SDS011;65096;50.998;7.098;2023-04-24T10:57:26;9.15;;;3.95;;
76284;SDS011;65096;50.998;7.098;2023-04-24T11:00:13;8.40;;;2.85;;
76284;SDS011;65096;50.998;7.098;2023-04-24T11:02:47;9.13;;;3.22;;
76284;SDS011;65096;50.998;7.098;2023-04-24T11:05:15;8.00;;;3.58;;
76284;SDS011;65096;50.998;7.098;2023-04-24T11:10:38;13.32;;;3.50;;
76284;SDS011;65096;50.998;7.098;2023-04-24T11:13:06;6.60;;;2.13;;
76284;SDS011;65096;50.998;7.098;2023-04-24T11:15:34;8.32;;;3.00;;
76284;SDS011;65096;50.998;7.098;2023-04-24T11:18:02;7.32;;;2.42;;
76284;SDS011;65096;50.998;7.098;2023-04-24T11:20:29;9.77;;;2.90;;
76284;SDS011;65096;50.998;7.098;2023-04-24T11:22:57;8.05;;;2.92;;
76284;SDS011;65096;50.998;7.098;2023-04-24T11:25:31;9.20;;;2.25;;
76284;SDS011;65096;50.998;7.098;2023-04-24T11:28:03;7.80;;;2.53;;
76284;SDS011;65096;50.998;7.098;2023-04-24T11:30:31;6.82;;;2.30;;
76284;SDS011;65096;50.998;7.098;2023-04-24T11:33:03;6.95;;;2.50;;
76284;SDS011;65096;50.998;7.098;2023-04-24T11:35:34;9.23;;;2.80;;
76284;SDS011;65096;50.998;7.098;2023-04-24T11:38:05;11.57;;;3.05;;
76284;SDS011;65096;50.998;7.098;2023-04-24T11:40:33;5.03;;;2.10;;
76284;SDS011;65096;50.998;7.098;2023-04-24T11:43:00;7.00;;;2.10;;
76284;SDS011;65096;50.998;7.098;2023-04-24T11:45:27;5.05;;;2.10;;
76284;SDS011;65096;50.998;7.098;2023-04-24T11:47:55;6.35;;;2.15;;
76284;SDS011;65096;50.998;7.098;2023-04-24T11:50:25;9.55;;;2.38;;
76284;SDS011;65096;50.998;7.098;2023-04-24T11:52:53;6.68;;;2.03;;
76284;SDS011;65096;50.998;7.098;2023-04-24T11:55:24;7.88;;;2.65;;
76284;SDS011;65096;50.998;7.098;2023-04-24T11:57:53;9.10;;;2.58;;
76284;SDS011;65096;50.998;7.098;2023-04-24T12:00:22;8.80;;;3.17;;
76284;SDS011;65096;50.998;7.098;2023-04-24T12:02:50;7.38;;;2.38;;
76284;SDS011;65096;50.998;7.098;2023-04-24T12:05:20;9.85;;;3.13;;
76284;SDS011;65096;50.998;7.098;2023-04-24T12:07:49;7.30;;;3.67;;
76284;SDS011;65096;50.998;7.098;2023-04-24T12:10:19;7.60;;;2.72;;
76284;SDS011;65096;50.998;7.098;2023-04-24T12:12:46;9.27;;;2.92;;
76284;SDS011;65096;50.998;7.098;2023-04-24T12:15:15;13.05;;;3.63;;
76284;SDS011;65096;50.998;7.098;2023-04-24T12:17:43;7.97;;;3.00;;
76284;SDS011;65096;50.998;7.098;2023-04-24T12:20:10;10.68;;;3.70;;
76284;SDS011;65096;50.998;7.098;2023-04-24T12:22:44;9.88;;;3.00;;
76284;SDS011;65096;50.998;7.098;2023-04-24T12:25:14;9.27;;;3.80;;
76284;SDS011;65096;50.998;7.098;2023-04-24T12:27:43;12.73;;;3.42;;
76284;SDS011;65096;50.998;7.098;2023-04-24T12:30:10;10.85;;;3.75;;
76284;SDS011;65096;50.998;7.098;2023-04-24T12:32:41;7.72;;;3.08;;
76284;SDS011;65096;50.998;7.098;2023-04-24T12:35:08;8.13;;;3.28;;
76284;SDS011;65096;50.998;7.098;2023-04-24T12:37:35;11.13;;;3.78;;
76284;SDS011;65096;50.998;7.098;2023-04-24T12:40:05;10.38;;;3.70;;
76284;SDS011;65096;50.998;7.098;2023-04-24T12:42:36;8.85;;;3.38;;
76284;SDS011;65096;50.998;7.098;2023-04-24T12:45:09;8.43;;;2.83;;
76284;SDS011;65096;50.998;7.098;2023-04-24T12:47:37;11.00;;;3.75;;
76284;SDS011;65096;50.998;7.098;2023-04-24T12:50:05;10.27;;;2.63;;
76284;SDS011;65096;50.998;7.098;2023-04-24T12:52:32;8.85;;;3.15;;
76284;SDS011;65096;50.998;7.098;2023-04-24T12:54:59;8.55;;;3.25;;
76284;SDS011;65096;50.998;7.098;2023-04-24T12:57:28;7.30;;;2.83;;
76284;SDS011;65096;50.998;7.098;2023-04-24T12:59:57;12.48;;;3.13;;
76284;SDS011;65096;50.998;7.098;2023-04-24T13:02:25;13.23;;;3.58;;
76284;SDS011;65096;50.998;7.098;2023-04-24T13:04:54;7.10;;;3.00;;
76284;SDS011;65096;50.998;7.098;2023-04-24T13:07:21;7.45;;;2.95;;
76284;SDS011;65096;50.998;7.098;2023-04-24T13:09:48;15.63;;;4.60;;
76284;SDS011;65096;50.998;7.098;2023-04-24T13:12:16;8.00;;;2.72;;
76284;SDS011;65096;50.998;7.098;2023-04-24T13:14:42;7.13;;;2.92;;
76284;SDS011;65096;50.998;7.098;2023-04-24T13:17:11;7.32;;;2.58;;
76284;SDS011;65096;50.998;7.098;2023-04-24T13:19:38;6.47;;;3.03;;
76284;SDS011;65096;50.998;7.098;2023-04-24T13:22:06;5.85;;;2.20;;
76284;SDS011;65096;50.998;7.098;2023-04-24T13:24:33;8.15;;;2.83;;
76284;SDS011;65096;50.998;7.098;2023-04-24T13:27:00;9.85;;;3.55;;
76284;SDS011;65096;50.998;7.098;2023-04-24T13:29:27;8.45;;;3.00;;
76284;SDS011;65096;50.998;7.098;2023-04-24T13:31:54;8.38;;;3.22;;
76284;SDS011;65096;50.998;7.098;2023-04-24T13:34:22;9.35;;;3.33;;
76284;SDS011;65096;50.998;7.098;2023-04-24T13:36:50;12.52;;;3.20;;
76284;SDS011;65096;50.998;7.098;2023-04-24T13:39:17;8.93;;;3.00;;
76284;SDS011;65096;50.998;7.098;2023-04-24T13:41:44;10.15;;;3.50;;
76284;SDS011;65096;50.998;7.098;2023-04-24T13:44:12;6.47;;;2.55;;
76284;SDS011;65096;50.998;7.098;2023-04-24T13:46:40;8.85;;;2.72;;
76284;SDS011;65096;50.998;7.098;2023-04-24T13:49:06;10.20;;;3.20;;
76284;SDS011;65096;50.998;7.098;2023-04-24T13:51:35;7.90;;;2.65;;
76284;SDS011;65096;50.998;7.098;2023-04-24T13:54:02;9.02;;;3.10;;
76284;SDS011;65096;50.998;7.098;2023-04-24T13:56:28;8.02;;;3.00;;
76284;SDS011;65096;50.998;7.098;2023-04-24T13:58:55;7.20;;;2.75;;
76284;SDS011;65096;50.998;7.098;2023-04-24T14:01:22;6.70;;;3.10;;
76284;SDS011;65096;50.998;7.098;2023-04-24T14:03:49;8.38;;;3.13;;
76284;SDS011;65096;50.998;7.098;2023-04-24T14:06:17;7.63;;;2.60;;
76284;SDS011;65096;50.998;7.098;2023-04-24T14:08:45;7.93;;;2.60;;
76284;SDS011;65096;50.998;7.098;2023-04-24T14:11:11;8.73;;;2.83;;
76284;SDS011;65096;50.998;7.098;2023-04-24T14:13:38;5.65;;;2.08;;
76284;SDS011;65096;50.998;7.098;2023-04-24T14:16:07;10.57;;;3.60;;
76284;SDS011;65096;50.998;7.098;2023-04-24T14:18:34;6.55;;;2.60;;
76284;SDS011;65096;50.998;7.098;2023-04-24T14:21:01;7.78;;;2.90;;
76284;SDS011;65096;50.998;7.098;2023-04-24T14:23:28;8.00;;;2.50;;
76284;SDS011;65096;50.998;7.098;2023-04-24T14:25:56;7.32;;;2.85;;
76284;SDS011;65096;50.998;7.098;2023-04-24T14:28:23;9.13;;;3.45;;
76284;SDS011;65096;50.998;7.098;2023-04-24T14:30:51;6.80;;;2.85;;
76284;SDS011;65096;50.998;7.098;2023-04-24T14:33:18;8.05;;;2.97;;
76284;SDS011;65096;50.998;7.098;2023-04-24T14:35:45;8.15;;;3.35;;
76284;SDS011;65096;50.998;7.098;2023-04-24T14:38:12;7.63;;;2.90;;
76284;SDS011;65096;50.998;7.098;2023-04-24T14:40:39;7.38;;;3.20;;
76284;SDS011;65096;50.998;7.098;2023-04-24T14:43:07;9.68;;;3.60;;
76284;SDS011;65096;50.998;7.098;2023-04-24T14:45:34;8.32;;;3.20;;
76284;SDS011;65096;50.998;7.098;2023-04-24T14:48:03;7.25;;;3.03;;
76284;SDS011;65096;50.998;7.098;2023-04-24T14:50:30;5.68;;;2.58;;